Aviation Digital Data Service (ADDS)

Output produced by METARs form (0035 UTC 23 October 2014)
found at http://www.aviationweather.gov/adds/metars/
 
METAR text: KCCU 230017Z AUTO 17013G20KT 160V240 10SM SCT036 BKN075 03/M01 A3042 RMK AO2
Conditions at: KCCU (RED CLIFF PASS , CO, US) observed 0017 UTC 23 October 2014
Temperature: 3.0°C (37°F)
Dewpoint: -1.0°C (30°F) [RH = 75%]
Pressure (altimeter): 30.42 inches Hg (1030.2 mb)
Winds: from the S (170 degrees) at 15 MPH (13 knots; 6.8 m/s)
gusting to 23 MPH (20 knots; 10.4 m/s)
Visibility: 10 or more miles (16+ km)
Ceiling: 7500 feet AGL
Clouds: scattered clouds at 3600 feet AGL
broken clouds at 7500 feet AGL
Weather: automated observation with no human augmentation;
there may or may not be significant weather present at this time